Latest Weather Observations for Mount Hotham AWS

IDV60801

Issued at 12:31 pm EDT Friday 27 March 2015 (issued every 30 minutes, with the page automatically refreshed every 10 minutes)

About weather observations | Map of weather stations | Latest weather observations for VIC | Other Formats
Station Details ID: 083085 Name: MOUNT HOTHAM Lat: -36.98 Lon: 147.13 Height: 1849.0 m
Data from the previous 72 hours. | See also: Recent months at Mount Hotham AWS
Date/Time
EDT
Temp
°C
App
Temp
°C
Dew
Point
Rel
Hum
%
Delta-T
°C
Wind Press
QNH
hPa
Press
MSL
hPa
Rain
since 9 am
mm
Dir
 
Spd
km/h
Gust
km/h
Spd
kts
Gust
kts
27/12:30pm 1.2 -5.9 1.1 99 0.0 WNW 28 44 15 24 - - 5.2
27/12:00pm 1.0 -6.9 0.9 99 0.0 W 32 44 17 24 - - 5.2
27/11:42am 1.0 -7.1 0.9 99 0.0 W 33 52 18 28 - - 5.2
27/11:35am 0.9 -7.2 0.8 99 0.0 W 33 52 18 28 - - 5.2
27/11:30am 0.7 -6.9 0.6 99 0.0 W 30 46 16 25 - - 5.0
27/11:00am 0.4 -7.2 0.3 99 0.0 WNW 30 43 16 23 - - 4.4
27/10:30am 0.2 -6.7 0.1 99 0.0 WNW 26 46 14 25 - - 3.4
27/10:07am 0.1 -7.2 0.0 99 0.0 WNW 28 46 15 25 - - 2.4
27/10:00am 0.0 -7.7 -0.1 99 0.0 WNW 30 44 16 24 - - 2.0
27/09:30am -0.1 -7.8 -0.2 99 0.0 NNW 30 41 16 22 - - 0.8
27/09:00am -0.2 -8.3 -0.3 99 0.0 NW 32 43 17 23 - - 4.4
27/08:30am -0.2 -8.3 -0.3 99 0.0 NW 32 46 17 25 - - 3.8
27/08:00am -0.2 -7.2 -0.3 99 0.0 NW 26 35 14 19 - - 3.4
27/07:36am -0.2 -7.9 -0.3 99 0.0 WNW 30 50 16 27 - - 3.2
27/07:30am -0.1 -7.1 -0.2 99 0.0 NW 26 39 14 21 - - 3.2
27/07:00am -0.1 -7.8 -0.2 99 0.0 NW 30 46 16 25 - - 2.8
27/06:34am -0.1 -7.8 -0.2 99 0.0 NW 30 48 16 26 - - 2.4
27/06:30am -0.1 -8.2 -0.2 99 0.0 NNW 32 48 17 26 - - 2.4
27/06:00am -0.1 -8.4 -0.2 99 0.0 NNW 33 46 18 25 - - 2.0
27/05:30am -0.2 -8.3 -0.3 99 0.0 NNW 32 46 17 25 - - 2.0
27/05:12am -0.2 -8.9 -0.3 99 0.0 NNW 35 54 19 29 - - 2.0
27/05:00am -0.2 -9.3 -0.3 99 0.0 NNW 37 50 20 27 - - 2.0
27/04:30am -0.1 -8.8 -0.2 99 0.0 NNW 35 56 19 30 - - 1.4
27/04:04am -0.2 -10.4 -0.3 99 0.0 NNW 43 61 23 33 - - 0.4
27/04:00am -0.1 -10.9 -0.2 99 0.0 NNW 46 61 25 33 - - 0.4
27/03:34am -0.2 -10.6 -0.3 99 0.0 NNW 44 63 24 34 - - 0.4
27/03:30am -0.2 -11.0 -0.3 99 0.0 NNW 46 63 25 34 - - 0.4
27/03:00am -0.2 -10.4 -0.3 99 0.0 NNW 43 61 23 33 - - 0.4
27/02:47am -0.4 -10.2 -0.5 99 0.0 N 41 59 22 32 - - 0.4
27/02:30am -0.3 -10.7 -0.4 99 0.0 NNW 44 56 24 30 - - 0.4
27/02:00am -0.4 -10.2 -0.5 99 0.0 N 41 52 22 28 - - 0.4
27/01:30am -0.6 -10.5 -0.7 99 0.0 N 41 54 22 29 - - 0.4
27/01:00am -0.5 -10.0 -0.6 99 0.0 N 39 52 21 28 - - 0.4
27/12:40am -0.6 -10.9 -0.7 99 0.0 N 43 61 23 33 - - 0.4
27/12:39am -0.6 -10.9 -0.7 99 0.0 N 43 61 23 33 - - 0.4
27/12:30am -0.6 -10.9 -0.7 99 0.0 N 43 54 23 29 - - 0.4
27/12:05am -0.6 -10.5 -0.7 99 0.0 N 41 59 22 32 - - 0.4
27/12:01am -0.7 -11.0 -0.8 99 0.0 N 43 61 23 33 - - 0.4
27/12:00am -0.7 -11.2 -0.8 99 0.0 N 44 61 24 33 - - 0.4
 
Date/Time
EDT
Temp
°C
App
Temp
°C
Dew
Point
Rel
Hum
%
Delta-T
°C
Wind Press
QNH
hPa
Press
MSL
hPa
Rain
since 9 am
mm
Dir
 
Spd
km/h
Gust
km/h
Spd
kts
Gust
kts
26/11:41pm -0.8 -11.1 -0.9 99 0.0 N 43 61 23 33 - - 0.4
26/11:30pm -0.8 -11.7 -0.9 99 0.0 N 46 61 25 33 - - 0.4
26/11:01pm -0.3 -11.2 -1.4 92 0.4 N 46 65 25 35 - - 0.4
26/11:00pm -0.4 -11.3 -1.5 92 0.4 N 46 59 25 32 - - 0.4
26/10:45pm -0.3 -10.9 -1.9 89 0.6 N 44 63 24 34 - - 0.4
26/10:30pm -0.3 -10.9 -2.0 88 0.6 N 44 61 24 33 - - 0.4
26/10:02pm -0.2 -10.7 -2.6 84 0.9 N 43 61 23 33 - - 0.4
26/10:00pm -0.2 -10.7 -2.6 84 0.9 N 43 56 23 30 - - 0.4
26/09:30pm -0.2 -10.8 -3.1 81 1.1 N 43 61 23 33 - - 0.4
26/09:15pm -0.1 -11.6 -3.0 81 1.1 N 48 67 26 36 - - 0.4
26/09:08pm -0.2 -11.0 -3.1 81 1.1 N 44 63 24 34 - - 0.4
26/09:00pm -0.2 -11.3 -3.1 81 1.1 N 46 61 25 33 - - 0.4
26/08:30pm -0.2 -11.3 -3.2 80 1.1 N 46 65 25 35 - - 0.4
26/08:00pm -0.3 -11.5 -3.5 79 1.2 N 46 74 25 40 - - 0.4
26/07:30pm -0.2 -11.8 -3.7 77 1.3 NNW 48 69 26 37 - - 0.4
26/07:07pm 0.1 -12.3 -4.0 74 1.5 NNW 52 82 28 44 - - 0.4
26/07:06pm 0.1 -11.5 -4.0 74 1.5 NNW 48 82 26 44 - - 0.4
26/07:00pm 0.1 -11.1 -4.0 74 1.5 NNW 46 70 25 38 - - 0.4
26/06:48pm 0.2 -11.4 -3.9 74 1.5 NNW 48 67 26 36 - - 0.4
26/06:30pm 0.3 -12.1 -4.0 73 1.6 NNW 52 69 28 37 - - 0.4
26/06:14pm 0.4 -10.8 -3.3 76 1.4 N 46 65 25 35 - - 0.4
26/06:00pm 0.4 -10.2 -3.7 74 1.6 NNW 43 59 23 32 - - 0.4
26/05:30pm 0.5 -10.7 -3.8 73 1.6 N 46 67 25 36 - - 0.4
26/05:08pm 0.5 -10.1 -3.8 73 1.6 N 43 61 23 33 - - 0.4
26/05:00pm 0.6 -10.0 -3.7 73 1.6 N 43 59 23 32 - - 0.4
26/04:30pm 0.5 -9.3 -3.2 76 1.4 N 39 69 21 37 - - 0.4
26/04:00pm 0.3 -8.7 -2.7 80 1.2 NNW 35 54 19 29 - - 0.4
26/03:34pm 0.2 -8.8 -2.7 81 1.1 NNW 35 56 19 30 - - 0.4
26/03:30pm 0.3 -8.3 -2.4 82 1.1 NNW 33 48 18 26 - - 0.4
26/03:01pm 0.1 -8.2 -1.8 87 0.8 NNW 32 59 17 32 - - 0.4
26/03:00pm 0.0 -8.5 -1.9 87 0.7 NNW 33 46 18 25 - - 0.4
26/02:30pm 0.0 -8.2 -1.1 92 0.4 NNW 32 50 17 27 - - 0.4
26/02:12pm -0.4 -9.2 -1.4 93 0.4 NNW 35 54 19 29 - - 0.4
26/02:00pm -0.4 -8.8 -1.2 94 0.3 NNW 33 48 18 26 - - 0.4
26/01:30pm 0.1 -9.4 -0.6 95 0.3 N 39 57 21 31 - - 0.4
26/01:08pm -0.5 -10.4 -0.9 97 0.1 N 41 61 22 33 - - 0.4
26/01:00pm -0.2 -9.3 -0.3 99 0.0 NNW 37 48 20 26 - - 0.4
26/12:30pm -1.0 -10.9 -1.1 99 0.0 N 41 54 22 29 - - 0.4
26/12:05pm -1.2 -10.4 -1.3 99 0.0 N 37 56 20 30 - - 0.4
26/12:00pm -1.1 -9.9 -1.2 99 0.0 N 35 48 19 26 - - 0.4
26/11:50am -1.0 -10.5 -1.1 99 0.0 N 39 57 21 31 - - 0.4
26/11:30am -1.0 -11.3 -1.1 99 0.0 N 43 56 23 30 - - 0.4
26/11:00am -1.1 -11.4 -1.2 99 0.0 N 43 56 23 30 - - 0.4
26/10:30am -0.7 -12.3 -0.8 99 0.0 N 50 67 27 36 - - 0.2
26/10:00am -0.5 -11.3 -0.6 99 0.0 N 46 67 25 36 - - 0.0
26/09:54am -0.5 -11.7 -0.6 99 0.0 N 48 67 26 36 - - 0.0
26/09:30am -0.3 -12.6 -0.4 99 0.0 N 54 69 29 37 - - 0.0
26/09:16am -0.5 -12.8 -0.6 99 0.0 N 54 72 29 39 - - 0.0
26/09:00am -0.6 -11.8 -0.7 99 0.0 N 48 63 26 34 - - 0.0
26/08:30am 0.0 -12.3 -0.1 99 0.0 N 54 69 29 37 - - 0.0
26/08:00am 0.3 -12.6 -0.4 95 0.3 N 57 78 31 42 - - 0.0
26/07:30am 0.0 -12.0 -1.0 93 0.4 N 52 76 28 41 - - 0.0
26/07:01am 0.0 -11.3 -1.3 91 0.5 N 48 67 26 36 - - 0.0
26/07:00am 0.0 -11.3 -1.3 91 0.5 N 48 65 26 35 - - 0.0
26/06:43am 0.2 -10.7 -1.1 91 0.5 N 46 65 25 35 - - 0.0
26/06:30am 0.5 -11.1 -0.9 90 0.6 N 50 61 27 33 - - 0.0
26/06:12am 0.7 -10.5 -0.9 89 0.6 N 48 67 26 36 - - 0.0
26/06:00am 0.6 -9.9 -1.0 89 0.7 N 44 61 24 33 - - 0.0
26/05:30am -0.1 -10.1 -1.4 91 0.5 N 41 56 22 30 - - 0.0
26/05:00am 0.1 -10.5 -1.5 89 0.6 N 44 56 24 30 - - 0.0
26/04:30am 0.4 -10.6 -1.7 86 0.8 N 46 59 25 32 - - 0.0
26/04:05am 0.8 -9.8 -1.6 84 1.0 N 44 65 24 35 - - 0.0
26/04:00am 0.8 -9.7 -1.4 85 0.9 N 44 57 24 31 - - 0.0
26/03:30am 0.8 -9.7 -1.4 85 0.9 N 44 59 24 32 - - 0.0
26/03:00am 0.9 -10.0 -1.0 87 0.8 N 46 57 25 31 - - 0.0
26/02:30am 0.9 -9.9 -0.4 91 0.5 N 46 57 25 31 - - 0.0
26/02:00am 1.1 -10.3 0.5 96 0.3 N 50 61 27 33 - - 0.0
26/01:30am 1.7 -9.5 1.6 99 0.0 N 50 65 27 35 - - 0.0
26/01:00am 2.3 -9.7 1.7 96 0.3 N 54 72 29 39 - - 0.0
26/12:30am 2.9 -9.1 1.7 92 0.5 N 54 72 29 39 - - 0.0
26/12:15am 3.0 -9.3 1.8 92 0.5 N 56 74 30 40 - - 0.0
26/12:00am 3.1 -9.8 1.9 92 0.5 N 59 74 32 40 - - 0.0
 
Date/Time
EDT
Temp
°C
App
Temp
°C
Dew
Point
Rel
Hum
%
Delta-T
°C
Wind Press
QNH
hPa
Press
MSL
hPa
Rain
since 9 am
mm
Dir
 
Spd
km/h
Gust
km/h
Spd
kts
Gust
kts
25/11:36pm 3.1 -10.2 1.5 89 0.7 N 61 78 33 42 - - 0.0
25/11:35pm 3.1 -10.2 1.5 89 0.7 N 61 80 33 43 - - 0.0
25/11:30pm 3.2 -10.9 1.4 88 0.8 N 65 80 35 43 - - 0.0
25/11:00pm 3.3 -9.7 1.3 87 0.9 N 59 76 32 41 - - 0.0
25/10:30pm 3.5 -9.1 1.2 85 1.0 N 57 78 31 42 - - 0.0
25/10:00pm 4.0 -8.6 1.4 83 1.1 N 57 78 31 42 - - 0.0
25/09:59pm 4.0 -8.4 1.4 83 1.1 N 56 78 30 42 - - 0.0
25/09:30pm 4.4 -7.1 2.1 85 1.0 N 52 65 28 35 - - 0.0
25/09:00pm 4.6 -6.1 2.6 87 0.9 N 48 63 26 34 - - 0.0
25/08:49pm 4.7 -5.2 2.7 87 0.9 N 44 63 24 34 - - 0.0
25/08:30pm 4.9 -4.5 2.6 85 1.1 N 41 56 22 30 - - 0.0
25/08:10pm 5.2 -4.5 2.7 84 1.2 N 43 65 23 35 - - 0.0
25/08:00pm 5.1 -4.6 2.6 84 1.1 N 43 54 23 29 - - 0.0
25/07:30pm 4.9 -4.1 2.4 84 1.1 N 39 52 21 28 - - 0.0
25/07:00pm 5.3 -3.0 2.3 81 1.4 N 35 46 19 25 - - 0.0
25/06:30pm 5.7 -3.0 2.0 77 1.7 N 37 48 20 26 - - 0.0
25/06:00pm 6.4 -2.6 2.7 77 1.7 N 39 48 21 26 - - 0.0
25/05:30pm 6.9 -1.6 3.3 78 1.7 N 37 48 20 26 - - 0.0
25/05:10pm 6.5 -2.0 3.3 80 1.5 N 37 56 20 30 - - 0.0
25/05:00pm 7.2 -1.3 3.4 77 1.8 N 37 54 20 29 - - 0.0
25/04:53pm 7.8 0.4 4.0 77 1.8 N 32 52 17 28 - - 0.0
25/04:30pm 7.4 -0.7 3.1 74 2.0 N 35 50 19 27 - - 0.0
25/04:21pm 7.0 -0.6 3.1 76 1.8 N 32 50 17 27 - - 0.0
25/04:00pm 7.1 0.1 3.9 80 1.5 N 30 46 16 25 - - 0.0
25/03:30pm 7.6 0.6 4.2 79 1.7 N 30 43 16 23 - - 0.0
25/03:00pm 6.6 -1.5 3.4 80 1.5 N 35 48 19 26 - - 0.0
25/02:30pm 7.0 -0.6 3.8 80 1.5 N 33 48 18 26 - - 0.0
25/02:00pm 6.6 -0.3 4.6 87 1.0 N 30 41 16 22 - - 0.0
25/01:30pm 6.1 -0.1 4.4 89 0.8 ENE 26 39 14 21 - - 0.0
25/01:00pm 4.8 -1.7 4.5 98 0.1 NE 28 39 15 21 - - 0.0
25/12:30pm 4.4 -2.2 4.3 99 0.0 N 28 35 15 19 - - 0.0
25/12:00pm 4.0 -3.0 3.9 99 0.0 NNE 30 39 16 21 - - 0.0
25/11:30am 3.7 -3.0 3.6 99 0.0 N 28 35 15 19 - - 0.0
25/11:00am 4.4 -1.9 3.5 94 0.4 N 26 35 14 19 - - 0.0
25/10:30am 4.4 -1.6 3.1 91 0.6 N 24 33 13 18 - - 0.0
25/10:00am 4.9 -1.6 2.8 86 1.0 N 26 35 14 19 - - 0.0
25/09:30am 4.9 -1.5 3.1 88 0.8 N 26 33 14 18 - - 0.0
25/09:00am 4.9 -0.8 2.6 85 1.1 N 22 28 12 15 - - 1.0
25/08:30am 4.7 -0.3 1.4 79 1.5 N 17 20 9 11 - - 1.0
25/08:00am 3.6 -0.7 0.8 82 1.2 N 13 17 7 9 - - 1.0
25/07:30am 3.8 -0.6 0.3 78 1.5 NNW 13 15 7 8 - - 1.0
25/07:00am 4.1 -0.3 0.4 77 1.6 NNW 13 17 7 9 - - 1.0
25/06:30am 4.7 0.3 0.5 74 1.8 NW 13 15 7 8 - - 1.0
25/06:00am 4.4 2.0 4.3 99 0.0 NNW 6 9 3 5 - - 1.0
25/05:30am 3.4 -0.5 3.3 99 0.0 NNW 13 17 7 9 - - 1.0
25/05:00am 2.4 -0.6 2.3 99 0.0 NE 7 11 4 6 - - 1.0
25/04:30am 1.9 -2.7 1.8 99 0.0 ESE 15 19 8 10 - - 1.0
25/04:00am 1.9 -3.4 1.8 99 0.0 ESE 19 22 10 12 - - 1.0
25/03:30am 2.3 -3.1 2.2 99 0.0 E 20 24 11 13 - - 0.8
25/03:00am 2.6 -2.6 2.5 99 0.0 ESE 19 26 10 14 - - 0.8
25/02:30am 2.9 -2.4 2.8 99 0.0 ESE 20 30 11 16 - - 0.8
25/02:00am 2.9 -3.2 2.8 99 0.0 SE 24 35 13 19 - - 0.8
25/01:30am 3.0 -4.8 2.9 99 0.0 SSE 33 43 18 23 - - 0.8
25/01:00am 3.1 -5.0 3.0 99 0.0 SSE 35 43 19 23 - - 0.6
25/12:30am 3.0 -5.5 2.9 99 0.0 SSE 37 46 20 25 - - 0.6
25/12:00am 2.8 -6.5 2.7 99 0.0 SSE 41 54 22 29 - - 0.4
 
Date/Time
EDT
Temp
°C
App
Temp
°C
Dew
Point
Rel
Hum
%
Delta-T
°C
Wind Press
QNH
hPa
Press
MSL
hPa
Rain
since 9 am
mm
Dir
 
Spd
km/h
Gust
km/h
Spd
kts
Gust
kts
24/11:39pm 2.8 -6.5 2.7 99 0.0 S 41 61 22 33 - - 0.4
24/11:30pm 2.7 -6.3 2.6 99 0.0 SSE 39 50 21 27 - - 0.4
24/11:00pm 2.6 -4.7 2.5 99 0.0 SSE 30 37 16 20 - - 0.4
24/10:30pm 2.5 -5.8 2.4 99 0.0 S 35 46 19 25 - - 0.4
24/10:00pm 2.4 -5.5 2.3 99 0.0 SSE 33 43 18 23 - - 0.2
24/09:30pm 2.4 -5.5 2.3 99 0.0 SSE 33 46 18 25 - - 0.2
24/09:00pm 2.4 -5.3 2.3 99 0.0 S 32 39 17 21 - - 0.2
24/08:30pm 2.4 -4.9 2.3 99 0.0 S 30 41 16 22 - - 0.0
24/08:00pm 2.3 -5.6 2.2 99 0.0 S 33 41 18 22 - - 0.0
24/07:30pm 2.6 -4.7 2.5 99 0.0 SSE 30 37 16 20 - - 0.0
24/07:00pm 2.6 -5.1 2.5 99 0.0 S 32 41 17 22 - - 0.0
24/06:30pm 2.9 -3.2 2.8 99 0.0 S 24 32 13 17 - - 0.0
24/06:00pm 3.3 -2.3 3.2 99 0.0 S 22 35 12 19 - - 0.0
24/05:30pm 3.8 -1.2 3.7 99 0.0 S 19 24 10 13 - - 0.0
24/05:00pm 3.4 -2.6 3.3 99 0.0 S 24 30 13 16 - - 0.0
24/04:30pm 3.6 -1.4 3.5 99 0.0 S 19 26 10 14 - - 0.0
24/04:00pm 3.9 -1.3 3.8 99 0.0 S 20 26 11 14 - - 0.0
24/03:30pm 3.7 -1.5 3.6 99 0.0 S 20 26 11 14 - - 0.0
24/03:00pm 4.1 -1.0 4.0 99 0.0 S 20 24 11 13 - - 0.0
24/02:30pm 5.2 1.2 5.1 99 0.0 SSW 15 19 8 10 - - 0.0
24/02:00pm 5.0 1.4 4.9 99 0.0 SSW 13 19 7 10 - - 0.0
24/01:30pm 7.1 3.3 5.9 92 0.6 NNW 15 20 8 11 - - 0.0
24/01:00pm 5.2 2.8 5.1 99 0.0 WSW 7 13 4 7 - - 0.0

Other Formats:

Comma delimited format used in spreadsheet applications
http://www.bom.gov.au/fwo/IDV60801/IDV60801.94906.axf

JavaScript Object Notation format (JSON) in row-major order
http://www.bom.gov.au/fwo/IDV60801/IDV60801.94906.json